sensor_id;sensor_type;location;lat;lon;timestamp;temperature;humidity
18898;DHT22;9581;49.484;8.556;2023-03-16T00:00:31;2.70;99.90
18898;DHT22;9581;49.484;8.556;2023-03-16T00:02:58;2.60;99.90
18898;DHT22;9581;49.484;8.556;2023-03-16T00:05:25;2.40;99.90
18898;DHT22;9581;49.484;8.556;2023-03-16T00:07:52;2.20;99.90
18898;DHT22;9581;49.484;8.556;2023-03-16T00:10:18;2.10;99.90
18898;DHT22;9581;49.484;8.556;2023-03-16T00:12:53;2.00;99.90
18898;DHT22;9581;49.484;8.556;2023-03-16T00:15:21;2.10;99.90
18898;DHT22;9581;49.484;8.556;2023-03-16T00:17:48;2.20;99.90
18898;DHT22;9581;49.484;8.556;2023-03-16T00:20:15;2.40;99.90
18898;DHT22;9581;49.484;8.556;2023-03-16T00:22:43;2.60;99.90
18898;DHT22;9581;49.484;8.556;2023-03-16T00:25:11;2.30;99.90
18898;DHT22;9581;49.484;8.556;2023-03-16T00:27:39;2.40;99.90
18898;DHT22;9581;49.484;8.556;2023-03-16T00:30:08;2.40;99.90
18898;DHT22;9581;49.484;8.556;2023-03-16T00:32:37;2.30;99.90
18898;DHT22;9581;49.484;8.556;2023-03-16T00:35:04;2.20;99.90
18898;DHT22;9581;49.484;8.556;2023-03-16T00:37:31;2.20;99.90
18898;DHT22;9581;49.484;8.556;2023-03-16T00:39:58;2.20;99.90
18898;DHT22;9581;49.484;8.556;2023-03-16T00:42:27;2.10;99.90
18898;DHT22;9581;49.484;8.556;2023-03-16T00:44:55;2.20;99.90
18898;DHT22;9581;49.484;8.556;2023-03-16T00:47:24;2.00;99.90
18898;DHT22;9581;49.484;8.556;2023-03-16T00:49:53;2.40;99.90
18898;DHT22;9581;49.484;8.556;2023-03-16T00:52:20;2.40;99.90
18898;DHT22;9581;49.484;8.556;2023-03-16T00:54:49;2.20;99.90
18898;DHT22;9581;49.484;8.556;2023-03-16T00:57:17;1.80;99.90
18898;DHT22;9581;49.484;8.556;2023-03-16T00:59:44;1.80;99.90
18898;DHT22;9581;49.484;8.556;2023-03-16T01:02:13;2.00;99.90
18898;DHT22;9581;49.484;8.556;2023-03-16T01:04:41;2.00;99.90
18898;DHT22;9581;49.484;8.556;2023-03-16T01:07:10;2.00;99.90
18898;DHT22;9581;49.484;8.556;2023-03-16T01:09:38;1.90;99.90
18898;DHT22;9581;49.484;8.556;2023-03-16T01:12:06;2.00;99.90
18898;DHT22;9581;49.484;8.556;2023-03-16T01:14:34;2.10;99.90
18898;DHT22;9581;49.484;8.556;2023-03-16T01:17:01;1.90;99.90
18898;DHT22;9581;49.484;8.556;2023-03-16T01:19:29;1.90;99.90
18898;DHT22;9581;49.484;8.556;2023-03-16T01:22:01;2.10;99.90
18898;DHT22;9581;49.484;8.556;2023-03-16T01:24:28;2.30;99.90
18898;DHT22;9581;49.484;8.556;2023-03-16T01:26:55;1.90;99.90
18898;DHT22;9581;49.484;8.556;2023-03-16T01:29:22;1.90;99.90
18898;DHT22;9581;49.484;8.556;2023-03-16T01:31:49;2.00;99.90
18898;DHT22;9581;49.484;8.556;2023-03-16T01:34:16;1.80;99.90
18898;DHT22;9581;49.484;8.556;2023-03-16T01:36:45;1.90;99.90
18898;DHT22;9581;49.484;8.556;2023-03-16T01:39:14;1.70;99.90
18898;DHT22;9581;49.484;8.556;2023-03-16T01:41:42;1.70;99.90
18898;DHT22;9581;49.484;8.556;2023-03-16T01:44:11;1.80;99.90
18898;DHT22;9581;49.484;8.556;2023-03-16T01:46:38;1.80;99.90
18898;DHT22;9581;49.484;8.556;2023-03-16T01:49:08;1.80;99.90
18898;DHT22;9581;49.484;8.556;2023-03-16T01:51:40;1.90;99.90
18898;DHT22;9581;49.484;8.556;2023-03-16T01:54:17;1.90;99.90
18898;DHT22;9581;49.484;8.556;2023-03-16T01:56:51;2.10;99.90
18898;DHT22;9581;49.484;8.556;2023-03-16T01:59:22;2.10;99.90
18898;DHT22;9581;49.484;8.556;2023-03-16T02:01:51;1.60;99.90
18898;DHT22;9581;49.484;8.556;2023-03-16T02:04:35;1.70;99.90
18898;DHT22;9581;49.484;8.556;2023-03-16T02:07:06;1.70;99.90
18898;DHT22;9581;49.484;8.556;2023-03-16T02:09:36;1.40;99.90
18898;DHT22;9581;49.484;8.556;2023-03-16T02:12:07;1.10;99.90
18898;DHT22;9581;49.484;8.556;2023-03-16T02:14:42;1.30;99.90
18898;DHT22;9581;49.484;8.556;2023-03-16T02:17:10;1.10;99.90
18898;DHT22;9581;49.484;8.556;2023-03-16T02:19:42;1.00;99.90
18898;DHT22;9581;49.484;8.556;2023-03-16T02:22:12;1.00;99.90
18898;DHT22;9581;49.484;8.556;2023-03-16T02:24:41;1.30;99.90
18898;DHT22;9581;49.484;8.556;2023-03-16T02:27:09;1.40;99.90
18898;DHT22;9581;49.484;8.556;2023-03-16T02:30:05;1.30;99.90
18898;DHT22;9581;49.484;8.556;2023-03-16T02:32:33;1.70;99.90
18898;DHT22;9581;49.484;8.556;2023-03-16T02:35:02;1.70;99.90
18898;DHT22;9581;49.484;8.556;2023-03-16T02:37:29;1.80;99.90
18898;DHT22;9581;49.484;8.556;2023-03-16T02:39:58;1.80;99.90
18898;DHT22;9581;49.484;8.556;2023-03-16T02:42:25;1.70;99.90
18898;DHT22;9581;49.484;8.556;2023-03-16T02:44:54;1.50;99.90
18898;DHT22;9581;49.484;8.556;2023-03-16T02:47:29;1.60;99.90
18898;DHT22;9581;49.484;8.556;2023-03-16T02:49:57;1.60;99.90
18898;DHT22;9581;49.484;8.556;2023-03-16T02:52:24;1.60;99.90
18898;DHT22;9581;49.484;8.556;2023-03-16T02:54:50;1.60;99.90
18898;DHT22;9581;49.484;8.556;2023-03-16T02:57:17;1.60;99.90
18898;DHT22;9581;49.484;8.556;2023-03-16T02:59:45;1.70;99.90
18898;DHT22;9581;49.484;8.556;2023-03-16T03:02:12;1.40;99.90
18898;DHT22;9581;49.484;8.556;2023-03-16T03:04:40;1.40;99.90
18898;DHT22;9581;49.484;8.556;2023-03-16T03:07:10;1.40;99.90
18898;DHT22;9581;49.484;8.556;2023-03-16T03:09:38;1.50;99.90
18898;DHT22;9581;49.484;8.556;2023-03-16T03:12:06;1.50;99.90
18898;DHT22;9581;49.484;8.556;2023-03-16T03:14:33;1.50;99.90
18898;DHT22;9581;49.484;8.556;2023-03-16T03:17:03;1.40;99.90
18898;DHT22;9581;49.484;8.556;2023-03-16T03:19:30;1.50;99.90
18898;DHT22;9581;49.484;8.556;2023-03-16T03:22:00;1.50;99.90
18898;DHT22;9581;49.484;8.556;2023-03-16T03:24:28;1.40;99.90
18898;DHT22;9581;49.484;8.556;2023-03-16T03:26:56;1.40;99.90
18898;DHT22;9581;49.484;8.556;2023-03-16T03:29:23;1.50;99.90
18898;DHT22;9581;49.484;8.556;2023-03-16T03:31:50;1.70;99.90
18898;DHT22;9581;49.484;8.556;2023-03-16T03:34:16;1.50;99.90
18898;DHT22;9581;49.484;8.556;2023-03-16T03:36:43;1.60;99.90
18898;DHT22;9581;49.484;8.556;2023-03-16T03:39:11;1.80;99.90
18898;DHT22;9581;49.484;8.556;2023-03-16T03:41:38;2.00;99.90
18898;DHT22;9581;49.484;8.556;2023-03-16T03:44:05;1.80;99.90
18898;DHT22;9581;49.484;8.556;2023-03-16T03:46:32;1.50;99.90
18898;DHT22;9581;49.484;8.556;2023-03-16T03:48:59;1.40;99.90
18898;DHT22;9581;49.484;8.556;2023-03-16T03:51:28;1.30;99.90
18898;DHT22;9581;49.484;8.556;2023-03-16T03:53:55;1.30;99.90
18898;DHT22;9581;49.484;8.556;2023-03-16T03:56:24;1.40;99.90
18898;DHT22;9581;49.484;8.556;2023-03-16T03:58:50;1.60;99.90
18898;DHT22;9581;49.484;8.556;2023-03-16T04:01:17;1.80;99.90
18898;DHT22;9581;49.484;8.556;2023-03-16T04:03:44;1.60;99.90
18898;DHT22;9581;49.484;8.556;2023-03-16T04:06:11;1.30;99.90
18898;DHT22;9581;49.484;8.556;2023-03-16T04:08:37;1.50;99.90
18898;DHT22;9581;49.484;8.556;2023-03-16T04:11:04;1.80;99.90
18898;DHT22;9581;49.484;8.556;2023-03-16T04:13:32;1.60;99.90
18898;DHT22;9581;49.484;8.556;2023-03-16T04:16:00;1.50;99.90
18898;DHT22;9581;49.484;8.556;2023-03-16T04:18:28;1.50;99.90
18898;DHT22;9581;49.484;8.556;2023-03-16T04:21:03;1.50;99.90
18898;DHT22;9581;49.484;8.556;2023-03-16T04:23:30;1.50;99.90
18898;DHT22;9581;49.484;8.556;2023-03-16T04:25:58;1.60;99.90
18898;DHT22;9581;49.484;8.556;2023-03-16T04:28:25;1.80;99.90
18898;DHT22;9581;49.484;8.556;2023-03-16T04:30:53;1.70;99.90
18898;DHT22;9581;49.484;8.556;2023-03-16T04:33:20;1.50;99.90
18898;DHT22;9581;49.484;8.556;2023-03-16T04:35:47;1.60;99.90
18898;DHT22;9581;49.484;8.556;2023-03-16T04:38:14;1.70;99.90
18898;DHT22;9581;49.484;8.556;2023-03-16T04:40:40;2.00;99.90
18898;DHT22;9581;49.484;8.556;2023-03-16T04:43:07;1.90;99.90
18898;DHT22;9581;49.484;8.556;2023-03-16T04:45:34;2.10;99.90
18898;DHT22;9581;49.484;8.556;2023-03-16T04:48:02;1.90;99.90
18898;DHT22;9581;49.484;8.556;2023-03-16T04:50:29;2.00;99.90
18898;DHT22;9581;49.484;8.556;2023-03-16T04:52:56;1.80;99.90
18898;DHT22;9581;49.484;8.556;2023-03-16T04:55:22;1.70;99.90
18898;DHT22;9581;49.484;8.556;2023-03-16T04:57:49;1.70;99.90
18898;DHT22;9581;49.484;8.556;2023-03-16T05:00:17;1.70;99.90
18898;DHT22;9581;49.484;8.556;2023-03-16T05:02:45;1.40;99.90
18898;DHT22;9581;49.484;8.556;2023-03-16T05:05:13;1.30;99.90
18898;DHT22;9581;49.484;8.556;2023-03-16T05:07:40;1.50;99.90
18898;DHT22;9581;49.484;8.556;2023-03-16T05:10:08;1.40;99.90
18898;DHT22;9581;49.484;8.556;2023-03-16T05:12:36;1.40;99.90
18898;DHT22;9581;49.484;8.556;2023-03-16T05:15:03;1.50;99.90
18898;DHT22;9581;49.484;8.556;2023-03-16T05:17:30;1.60;99.90
18898;DHT22;9581;49.484;8.556;2023-03-16T05:19:57;1.50;99.90
18898;DHT22;9581;49.484;8.556;2023-03-16T05:22:25;1.60;99.90
18898;DHT22;9581;49.484;8.556;2023-03-16T05:24:52;1.50;99.90
18898;DHT22;9581;49.484;8.556;2023-03-16T05:27:19;1.70;99.90
18898;DHT22;9581;49.484;8.556;2023-03-16T05:29:46;1.80;99.90
18898;DHT22;9581;49.484;8.556;2023-03-16T05:32:13;1.80;99.90
18898;DHT22;9581;49.484;8.556;2023-03-16T05:34:41;1.70;99.90
18898;DHT22;9581;49.484;8.556;2023-03-16T05:37:08;1.50;99.90
18898;DHT22;9581;49.484;8.556;2023-03-16T05:39:36;1.50;99.90
18898;DHT22;9581;49.484;8.556;2023-03-16T05:42:03;1.60;99.90
18898;DHT22;9581;49.484;8.556;2023-03-16T05:44:30;1.60;99.90
18898;DHT22;9581;49.484;8.556;2023-03-16T05:46:57;1.50;99.90
18898;DHT22;9581;49.484;8.556;2023-03-16T05:49:24;1.30;99.90
18898;DHT22;9581;49.484;8.556;2023-03-16T05:51:51;1.30;99.90
18898;DHT22;9581;49.484;8.556;2023-03-16T05:54:19;1.50;99.90
18898;DHT22;9581;49.484;8.556;2023-03-16T05:56:47;1.50;99.90
18898;DHT22;9581;49.484;8.556;2023-03-16T05:59:13;1.60;99.90
18898;DHT22;9581;49.484;8.556;2023-03-16T06:01:42;1.50;99.90
18898;DHT22;9581;49.484;8.556;2023-03-16T06:04:09;1.50;99.90
18898;DHT22;9581;49.484;8.556;2023-03-16T06:06:35;1.70;99.90
18898;DHT22;9581;49.484;8.556;2023-03-16T06:09:02;1.60;99.90
18898;DHT22;9581;49.484;8.556;2023-03-16T06:11:29;1.50;99.90
18898;DHT22;9581;49.484;8.556;2023-03-16T06:13:58;1.40;99.90
18898;DHT22;9581;49.484;8.556;2023-03-16T06:16:25;1.50;99.90
18898;DHT22;9581;49.484;8.556;2023-03-16T06:18:52;1.70;99.90
18898;DHT22;9581;49.484;8.556;2023-03-16T06:21:20;1.70;99.90
18898;DHT22;9581;49.484;8.556;2023-03-16T06:23:47;1.60;99.90
18898;DHT22;9581;49.484;8.556;2023-03-16T06:26:14;1.60;99.90
18898;DHT22;9581;49.484;8.556;2023-03-16T06:28:41;1.70;99.90
18898;DHT22;9581;49.484;8.556;2023-03-16T06:31:09;1.80;99.90
18898;DHT22;9581;49.484;8.556;2023-03-16T06:33:36;2.10;99.90
18898;DHT22;9581;49.484;8.556;2023-03-16T06:36:03;2.10;99.90
18898;DHT22;9581;49.484;8.556;2023-03-16T06:38:30;2.00;99.90
18898;DHT22;9581;49.484;8.556;2023-03-16T06:40:58;2.20;99.90
18898;DHT22;9581;49.484;8.556;2023-03-16T06:43:24;2.20;99.90
18898;DHT22;9581;49.484;8.556;2023-03-16T06:45:51;2.30;99.90
18898;DHT22;9581;49.484;8.556;2023-03-16T06:48:19;2.30;99.90
18898;DHT22;9581;49.484;8.556;2023-03-16T06:50:47;2.40;99.90
18898;DHT22;9581;49.484;8.556;2023-03-16T06:53:13;2.40;99.90
18898;DHT22;9581;49.484;8.556;2023-03-16T06:55:40;2.60;99.90
18898;DHT22;9581;49.484;8.556;2023-03-16T06:58:08;2.80;99.90
18898;DHT22;9581;49.484;8.556;2023-03-16T07:00:36;3.00;99.90
18898;DHT22;9581;49.484;8.556;2023-03-16T07:03:03;3.00;99.90
18898;DHT22;9581;49.484;8.556;2023-03-16T07:05:31;3.00;99.90
18898;DHT22;9581;49.484;8.556;2023-03-16T07:07:57;3.20;99.90
18898;DHT22;9581;49.484;8.556;2023-03-16T07:10:24;3.70;99.90
18898;DHT22;9581;49.484;8.556;2023-03-16T07:12:51;3.50;99.90
18898;DHT22;9581;49.484;8.556;2023-03-16T07:15:19;3.80;99.90
18898;DHT22;9581;49.484;8.556;2023-03-16T07:17:46;4.20;99.90
18898;DHT22;9581;49.484;8.556;2023-03-16T07:20:13;4.30;99.90
18898;DHT22;9581;49.484;8.556;2023-03-16T07:22:41;4.60;99.90
18898;DHT22;9581;49.484;8.556;2023-03-16T07:25:09;4.70;99.90
18898;DHT22;9581;49.484;8.556;2023-03-16T07:27:36;4.50;99.90
18898;DHT22;9581;49.484;8.556;2023-03-16T07:30:03;4.70;99.90
18898;DHT22;9581;49.484;8.556;2023-03-16T07:32:31;4.30;99.90
18898;DHT22;9581;49.484;8.556;2023-03-16T07:34:57;4.20;99.90
18898;DHT22;9581;49.484;8.556;2023-03-16T07:37:24;4.50;99.90
18898;DHT22;9581;49.484;8.556;2023-03-16T07:39:53;4.60;99.90
18898;DHT22;9581;49.484;8.556;2023-03-16T07:42:19;4.60;99.90
18898;DHT22;9581;49.484;8.556;2023-03-16T07:44:47;4.80;99.90
18898;DHT22;9581;49.484;8.556;2023-03-16T07:47:14;4.90;99.90
18898;DHT22;9581;49.484;8.556;2023-03-16T07:49:40;5.20;99.90
18898;DHT22;9581;49.484;8.556;2023-03-16T07:52:09;5.40;99.90
18898;DHT22;9581;49.484;8.556;2023-03-16T07:54:38;5.60;99.90
18898;DHT22;9581;49.484;8.556;2023-03-16T07:57:06;5.60;99.90
18898;DHT22;9581;49.484;8.556;2023-03-16T07:59:33;5.40;99.90
18898;DHT22;9581;49.484;8.556;2023-03-16T08:02:00;5.70;99.90
18898;DHT22;9581;49.484;8.556;2023-03-16T08:04:27;5.80;99.90
18898;DHT22;9581;49.484;8.556;2023-03-16T08:06:54;6.00;99.90
18898;DHT22;9581;49.484;8.556;2023-03-16T08:09:24;6.30;99.90
18898;DHT22;9581;49.484;8.556;2023-03-16T08:11:51;6.50;99.90
18898;DHT22;9581;49.484;8.556;2023-03-16T08:14:19;6.60;99.90
18898;DHT22;9581;49.484;8.556;2023-03-16T08:16:46;6.70;99.90
18898;DHT22;9581;49.484;8.556;2023-03-16T08:19:13;6.90;99.90
18898;DHT22;9581;49.484;8.556;2023-03-16T08:21:42;6.90;99.90
18898;DHT22;9581;49.484;8.556;2023-03-16T08:24:08;7.00;99.90
18898;DHT22;9581;49.484;8.556;2023-03-16T08:26:35;7.10;99.90
18898;DHT22;9581;49.484;8.556;2023-03-16T08:29:02;7.20;99.90
18898;DHT22;9581;49.484;8.556;2023-03-16T08:31:30;7.30;99.90
18898;DHT22;9581;49.484;8.556;2023-03-16T08:33:59;7.40;99.90
18898;DHT22;9581;49.484;8.556;2023-03-16T08:36:27;7.50;99.90
18898;DHT22;9581;49.484;8.556;2023-03-16T08:38:55;7.60;99.90
18898;DHT22;9581;49.484;8.556;2023-03-16T08:41:22;7.80;99.90
18898;DHT22;9581;49.484;8.556;2023-03-16T08:43:49;7.90;99.90
18898;DHT22;9581;49.484;8.556;2023-03-16T08:46:15;8.00;99.90
18898;DHT22;9581;49.484;8.556;2023-03-16T08:48:44;8.20;99.90
18898;DHT22;9581;49.484;8.556;2023-03-16T08:51:10;8.20;99.90
18898;DHT22;9581;49.484;8.556;2023-03-16T08:53:37;8.10;99.90
18898;DHT22;9581;49.484;8.556;2023-03-16T08:56:05;8.20;99.90
18898;DHT22;9581;49.484;8.556;2023-03-16T08:58:34;8.30;99.90
18898;DHT22;9581;49.484;8.556;2023-03-16T09:01:02;8.40;99.90
18898;DHT22;9581;49.484;8.556;2023-03-16T09:03:30;8.40;99.90
18898;DHT22;9581;49.484;8.556;2023-03-16T09:06:01;8.40;99.90
18898;DHT22;9581;49.484;8.556;2023-03-16T09:08:29;8.60;99.90
18898;DHT22;9581;49.484;8.556;2023-03-16T09:10:59;8.60;99.90
18898;DHT22;9581;49.484;8.556;2023-03-16T09:13:27;8.40;99.90
18898;DHT22;9581;49.484;8.556;2023-03-16T09:15:55;8.40;99.90
18898;DHT22;9581;49.484;8.556;2023-03-16T09:18:22;8.40;99.90
18898;DHT22;9581;49.484;8.556;2023-03-16T09:20:50;8.70;99.90
18898;DHT22;9581;49.484;8.556;2023-03-16T09:23:19;8.80;99.90
18898;DHT22;9581;49.484;8.556;2023-03-16T09:25:46;8.90;99.90
18898;DHT22;9581;49.484;8.556;2023-03-16T09:28:13;9.00;99.90
18898;DHT22;9581;49.484;8.556;2023-03-16T09:30:40;9.30;99.90
18898;DHT22;9581;49.484;8.556;2023-03-16T09:33:07;9.20;99.90
18898;DHT22;9581;49.484;8.556;2023-03-16T09:35:34;9.40;99.90
18898;DHT22;9581;49.484;8.556;2023-03-16T09:38:01;9.50;99.90
18898;DHT22;9581;49.484;8.556;2023-03-16T09:40:30;9.60;99.90
18898;DHT22;9581;49.484;8.556;2023-03-16T09:45:58;9.50;99.90
18898;DHT22;9581;49.484;8.556;2023-03-16T09:48:26;9.60;99.90
18898;DHT22;9581;49.484;8.556;2023-03-16T09:50:55;9.50;99.90
18898;DHT22;9581;49.484;8.556;2023-03-16T09:53:25;9.50;99.90
18898;DHT22;9581;49.484;8.556;2023-03-16T09:55:59;9.60;99.90
18898;DHT22;9581;49.484;8.556;2023-03-16T09:58:27;9.50;99.90
18898;DHT22;9581;49.484;8.556;2023-03-16T10:01:03;9.60;99.90
18898;DHT22;9581;49.484;8.556;2023-03-16T10:03:45;9.70;99.90
18898;DHT22;9581;49.484;8.556;2023-03-16T10:06:15;10.00;99.90
18898;DHT22;9581;49.484;8.556;2023-03-16T10:08:43;10.10;99.90
18898;DHT22;9581;49.484;8.556;2023-03-16T10:11:21;10.40;99.90
18898;DHT22;9581;49.484;8.556;2023-03-16T10:13:53;10.80;99.90
18898;DHT22;9581;49.484;8.556;2023-03-16T10:16:24;10.70;99.90
18898;DHT22;9581;49.484;8.556;2023-03-16T10:18:57;10.30;99.90
18898;DHT22;9581;49.484;8.556;2023-03-16T10:21:26;10.50;99.90
18898;DHT22;9581;49.484;8.556;2023-03-16T10:23:57;10.70;99.90
18898;DHT22;9581;49.484;8.556;2023-03-16T10:26:34;10.70;99.90
18898;DHT22;9581;49.484;8.556;2023-03-16T10:29:03;10.60;99.90
18898;DHT22;9581;49.484;8.556;2023-03-16T10:31:33;11.10;99.90
18898;DHT22;9581;49.484;8.556;2023-03-16T10:34:04;11.00;99.90
18898;DHT22;9581;49.484;8.556;2023-03-16T10:36:34;11.00;99.90
18898;DHT22;9581;49.484;8.556;2023-03-16T10:39:04;11.10;99.90
18898;DHT22;9581;49.484;8.556;2023-03-16T10:41:34;11.60;99.90
18898;DHT22;9581;49.484;8.556;2023-03-16T10:44:02;11.50;99.90
18898;DHT22;9581;49.484;8.556;2023-03-16T10:46:36;11.60;99.90
18898;DHT22;9581;49.484;8.556;2023-03-16T10:49:03;11.50;99.90
18898;DHT22;9581;49.484;8.556;2023-03-16T10:51:32;11.90;99.90
18898;DHT22;9581;49.484;8.556;2023-03-16T10:54:07;11.90;99.90
18898;DHT22;9581;49.484;8.556;2023-03-16T10:56:37;11.90;99.90
18898;DHT22;9581;49.484;8.556;2023-03-16T10:59:15;12.40;99.90
18898;DHT22;9581;49.484;8.556;2023-03-16T11:01:53;12.40;99.90
18898;DHT22;9581;49.484;8.556;2023-03-16T11:04:20;12.10;99.90
18898;DHT22;9581;49.484;8.556;2023-03-16T11:06:50;12.30;99.90
18898;DHT22;9581;49.484;8.556;2023-03-16T11:09:21;12.20;99.90
18898;DHT22;9581;49.484;8.556;2023-03-16T11:11:50;12.20;99.90
18898;DHT22;9581;49.484;8.556;2023-03-16T11:14:21;12.50;99.90
18898;DHT22;9581;49.484;8.556;2023-03-16T11:16:52;12.50;99.90
18898;DHT22;9581;49.484;8.556;2023-03-16T11:19:24;12.20;99.90
18898;DHT22;9581;49.484;8.556;2023-03-16T11:21:55;12.00;99.90
18898;DHT22;9581;49.484;8.556;2023-03-16T11:24:30;11.90;99.90
18898;DHT22;9581;49.484;8.556;2023-03-16T11:27:03;11.90;99.90
18898;DHT22;9581;49.484;8.556;2023-03-16T11:29:41;12.10;99.90
18898;DHT22;9581;49.484;8.556;2023-03-16T11:32:13;12.00;99.90
18898;DHT22;9581;49.484;8.556;2023-03-16T11:34:43;12.00;99.90
18898;DHT22;9581;49.484;8.556;2023-03-16T11:37:16;12.10;99.90
18898;DHT22;9581;49.484;8.556;2023-03-16T11:39:53;12.20;99.90
18898;DHT22;9581;49.484;8.556;2023-03-16T11:42:32;12.30;99.90
18898;DHT22;9581;49.484;8.556;2023-03-16T11:45:10;12.60;99.90
18898;DHT22;9581;49.484;8.556;2023-03-16T11:47:54;12.50;99.90
18898;DHT22;9581;49.484;8.556;2023-03-16T11:50:28;12.60;99.90
18898;DHT22;9581;49.484;8.556;2023-03-16T11:53:02;12.50;99.90
18898;DHT22;9581;49.484;8.556;2023-03-16T11:55:38;12.30;99.90
18898;DHT22;9581;49.484;8.556;2023-03-16T11:58:19;12.00;99.90
18898;DHT22;9581;49.484;8.556;2023-03-16T12:00:52;11.90;99.90
18898;DHT22;9581;49.484;8.556;2023-03-16T12:03:56;12.10;99.90
18898;DHT22;9581;49.484;8.556;2023-03-16T12:06:35;12.00;99.90
18898;DHT22;9581;49.484;8.556;2023-03-16T12:09:23;12.00;99.90
18898;DHT22;9581;49.484;8.556;2023-03-16T12:11:58;12.00;99.90
18898;DHT22;9581;49.484;8.556;2023-03-16T12:14:31;12.50;99.90
18898;DHT22;9581;49.484;8.556;2023-03-16T12:17:03;13.00;99.90
18898;DHT22;9581;49.484;8.556;2023-03-16T12:19:38;12.90;99.90
18898;DHT22;9581;49.484;8.556;2023-03-16T12:22:11;12.90;99.90
18898;DHT22;9581;49.484;8.556;2023-03-16T12:24:43;13.30;99.90
18898;DHT22;9581;49.484;8.556;2023-03-16T12:27:13;13.20;99.90
18898;DHT22;9581;49.484;8.556;2023-03-16T12:29:52;13.00;99.90
18898;DHT22;9581;49.484;8.556;2023-03-16T12:32:30;13.80;99.90
18898;DHT22;9581;49.484;8.556;2023-03-16T12:35:05;14.00;99.90
18898;DHT22;9581;49.484;8.556;2023-03-16T12:37:35;14.10;99.90
18898;DHT22;9581;49.484;8.556;2023-03-16T12:40:20;14.50;99.90
18898;DHT22;9581;49.484;8.556;2023-03-16T12:43:04;14.70;99.90
18898;DHT22;9581;49.484;8.556;2023-03-16T12:45:41;14.30;99.90
18898;DHT22;9581;49.484;8.556;2023-03-16T12:48:15;14.40;99.90
18898;DHT22;9581;49.484;8.556;2023-03-16T12:50:49;14.40;99.90
18898;DHT22;9581;49.484;8.556;2023-03-16T12:53:40;14.30;99.90
18898;DHT22;9581;49.484;8.556;2023-03-16T12:56:11;14.30;99.90
18898;DHT22;9581;49.484;8.556;2023-03-16T12:58:44;14.20;99.90
18898;DHT22;9581;49.484;8.556;2023-03-16T13:01:14;14.50;99.30
18898;DHT22;9581;49.484;8.556;2023-03-16T13:03:45;14.50;99.90
18898;DHT22;9581;49.484;8.556;2023-03-16T13:06:21;15.20;99.70
18898;DHT22;9581;49.484;8.556;2023-03-16T13:08:51;15.00;98.20
18898;DHT22;9581;49.484;8.556;2023-03-16T13:11:20;14.90;98.60
18898;DHT22;9581;49.484;8.556;2023-03-16T13:13:48;15.10;98.40
18898;DHT22;9581;49.484;8.556;2023-03-16T13:16:25;15.40;97.90
18898;DHT22;9581;49.484;8.556;2023-03-16T13:18:52;15.60;98.60
18898;DHT22;9581;49.484;8.556;2023-03-16T13:21:21;15.60;98.20
18898;DHT22;9581;49.484;8.556;2023-03-16T13:23:55;15.80;97.00
18898;DHT22;9581;49.484;8.556;2023-03-16T13:26:36;15.60;96.40
18898;DHT22;9581;49.484;8.556;2023-03-16T13:29:18;15.90;96.40
18898;DHT22;9581;49.484;8.556;2023-03-16T13:31:46;15.60;96.10
18898;DHT22;9581;49.484;8.556;2023-03-16T13:34:19;16.00;95.80
18898;DHT22;9581;49.484;8.556;2023-03-16T13:36:46;15.70;95.50
18898;DHT22;9581;49.484;8.556;2023-03-16T13:39:18;15.90;95.20
18898;DHT22;9581;49.484;8.556;2023-03-16T13:41:57;15.90;95.40
18898;DHT22;9581;49.484;8.556;2023-03-16T13:44:26;15.60;95.10
18898;DHT22;9581;49.484;8.556;2023-03-16T13:46:55;15.80;95.40
18898;DHT22;9581;49.484;8.556;2023-03-16T13:49:23;15.50;95.30
18898;DHT22;9581;49.484;8.556;2023-03-16T13:51:49;16.00;95.20
18898;DHT22;9581;49.484;8.556;2023-03-16T13:54:27;15.80;94.20
18898;DHT22;9581;49.484;8.556;2023-03-16T13:56:57;15.80;95.50
18898;DHT22;9581;49.484;8.556;2023-03-16T13:59:25;15.70;95.10
18898;DHT22;9581;49.484;8.556;2023-03-16T14:01:57;15.10;93.50
18898;DHT22;9581;49.484;8.556;2023-03-16T14:04:27;15.30;94.40
18898;DHT22;9581;49.484;8.556;2023-03-16T14:06:57;15.30;93.60
18898;DHT22;9581;49.484;8.556;2023-03-16T14:09:26;15.50;93.70
18898;DHT22;9581;49.484;8.556;2023-03-16T14:11:55;15.30;93.90
18898;DHT22;9581;49.484;8.556;2023-03-16T14:14:27;15.00;94.10
18898;DHT22;9581;49.484;8.556;2023-03-16T14:17:01;14.70;93.60
18898;DHT22;9581;49.484;8.556;2023-03-16T14:19:33;15.00;93.90
18898;DHT22;9581;49.484;8.556;2023-03-16T14:22:11;15.00;94.00
18898;DHT22;9581;49.484;8.556;2023-03-16T14:24:39;14.90;94.10
18898;DHT22;9581;49.484;8.556;2023-03-16T14:27:24;14.60;94.30
18898;DHT22;9581;49.484;8.556;2023-03-16T14:29:56;14.90;94.70
18898;DHT22;9581;49.484;8.556;2023-03-16T14:32:27;15.00;93.90
18898;DHT22;9581;49.484;8.556;2023-03-16T14:35:12;14.90;95.00
18898;DHT22;9581;49.484;8.556;2023-03-16T14:37:40;14.90;94.70
18898;DHT22;9581;49.484;8.556;2023-03-16T14:40:21;15.00;95.70
18898;DHT22;9581;49.484;8.556;2023-03-16T14:42:49;15.00;96.10
18898;DHT22;9581;49.484;8.556;2023-03-16T14:45:16;15.10;95.70
18898;DHT22;9581;49.484;8.556;2023-03-16T14:47:47;15.10;96.70
18898;DHT22;9581;49.484;8.556;2023-03-16T14:50:16;14.90;96.10
18898;DHT22;9581;49.484;8.556;2023-03-16T14:52:44;15.20;96.50
18898;DHT22;9581;49.484;8.556;2023-03-16T14:55:12;15.00;95.90
18898;DHT22;9581;49.484;8.556;2023-03-16T14:57:41;15.10;95.70
18898;DHT22;9581;49.484;8.556;2023-03-16T15:00:10;15.30;95.60
18898;DHT22;9581;49.484;8.556;2023-03-16T15:02:39;15.40;95.60
18898;DHT22;9581;49.484;8.556;2023-03-16T15:05:09;15.60;95.70
18898;DHT22;9581;49.484;8.556;2023-03-16T15:07:38;15.80;95.80
18898;DHT22;9581;49.484;8.556;2023-03-16T15:10:16;15.60;95.00
18898;DHT22;9581;49.484;8.556;2023-03-16T15:12:46;15.40;95.10
18898;DHT22;9581;49.484;8.556;2023-03-16T15:15:20;15.60;94.80
18898;DHT22;9581;49.484;8.556;2023-03-16T15:17:49;15.50;94.70
18898;DHT22;9581;49.484;8.556;2023-03-16T15:20:19;15.50;94.60
18898;DHT22;9581;49.484;8.556;2023-03-16T15:22:49;15.40;94.60
18898;DHT22;9581;49.484;8.556;2023-03-16T15:25:20;15.20;94.60
18898;DHT22;9581;49.484;8.556;2023-03-16T15:27:49;15.30;94.60
18898;DHT22;9581;49.484;8.556;2023-03-16T15:30:19;15.20;94.90
18898;DHT22;9581;49.484;8.556;2023-03-16T15:32:47;15.30;94.10
18898;DHT22;9581;49.484;8.556;2023-03-16T15:35:14;15.80;94.70
18898;DHT22;9581;49.484;8.556;2023-03-16T15:37:42;16.30;93.70
18898;DHT22;9581;49.484;8.556;2023-03-16T15:40:18;16.20;93.30
18898;DHT22;9581;49.484;8.556;2023-03-16T15:42:46;15.80;93.70
18898;DHT22;9581;49.484;8.556;2023-03-16T15:45:15;15.70;93.80
18898;DHT22;9581;49.484;8.556;2023-03-16T15:47:43;15.50;93.50
18898;DHT22;9581;49.484;8.556;2023-03-16T15:50:10;15.20;94.00
18898;DHT22;9581;49.484;8.556;2023-03-16T15:52:41;15.00;93.70
18898;DHT22;9581;49.484;8.556;2023-03-16T15:55:16;14.90;94.20
18898;DHT22;9581;49.484;8.556;2023-03-16T15:57:44;14.60;94.00
18898;DHT22;9581;49.484;8.556;2023-03-16T16:00:27;14.50;94.50
18898;DHT22;9581;49.484;8.556;2023-03-16T16:02:55;14.50;94.30
18898;DHT22;9581;49.484;8.556;2023-03-16T16:05:23;14.60;95.00
18898;DHT22;9581;49.484;8.556;2023-03-16T16:07:51;14.60;93.80
18898;DHT22;9581;49.484;8.556;2023-03-16T16:10:19;14.40;94.10
18898;DHT22;9581;49.484;8.556;2023-03-16T16:12:47;14.30;94.40